Time;durP1;ratioP1;P1;durP2;ratioP2;P2;SDS_P1;SDS_P2;PMS_P1;PMS_P2;Temp;Humidity;BMP_temperature;BMP_pressure;BME280_temperature;BME280_humidity;BME280_pressure;Samples;Min_cycle;Max_cycle;Signal;HPM_P1;HPM_P2
2024/01/12 00:01:19;;;;;;;23.17;12.93;;;;;;;0.61;67.41;101334.53;5051332;27;97366;-79
2024/01/12 00:03:44;;;;;;;23.27;13.50;;;;;;;0.61;67.82;101330.25;5069269;27;97019;-79
2024/01/12 00:06:09;;;;;;;21.03;12.50;;;;;;;0.66;67.61;101340.69;5054221;27;96888;-79
2024/01/12 00:08:37;;;;;;;20.57;12.50;;;;;;;0.68;67.81;101347.63;5046374;27;101829;-80
2024/01/12 00:11:03;;;;;;;24.40;13.90;;;;;;;0.73;67.51;101347.75;5056738;27;97389;-82
2024/01/12 00:13:28;;;;;;;24.40;14.00;;;;;;;0.55;67.66;101316.31;5061318;27;96973;-80
2024/01/12 00:15:54;;;;;;;21.87;12.93;;;;;;;0.69;67.39;101351.09;5067458;27;97222;-79
2024/01/12 00:18:19;;;;;;;20.53;11.57;;;;;;;0.61;67.48;101331.94;5060799;27;97757;-79
2024/01/12 00:20:45;;;;;;;24.17;12.37;;;;;;;0.71;67.79;101348.56;5057143;27;101943;-79
2024/01/12 00:23:10;;;;;;;21.17;11.77;;;;;;;0.78;67.35;101351.28;5047335;27;96774;-81
2024/01/12 00:25:36;;;;;;;18.10;11.07;;;;;;;0.79;66.97;101337.56;5078407;27;96798;-79
2024/01/12 00:28:02;;;;;;;18.67;12.27;;;;;;;0.65;67.23;101319.16;5057855;27;97494;-80
2024/01/12 00:30:27;;;;;;;19.07;11.40;;;;;;;0.72;67.29;101340.81;5063568;27;97677;-80
2024/01/12 00:32:53;;;;;;;21.77;12.77;;;;;;;0.84;66.87;101347.97;5044075;27;97098;-79
2024/01/12 00:35:18;;;;;;;21.37;11.47;;;;;;;0.73;67.00;101329.66;5041276;27;97039;-79
2024/01/12 00:37:44;;;;;;;20.23;12.33;;;;;;;0.88;67.02;101352.38;5041362;27;101280;-79
2024/01/12 00:40:10;;;;;;;18.53;11.33;;;;;;;0.67;67.01;101329.53;5054350;27;97481;-79
2024/01/12 00:42:35;;;;;;;18.03;12.53;;;;;;;0.80;67.19;101356.50;5039562;27;96764;-79
2024/01/12 00:45:01;;;;;;;19.87;12.17;;;;;;;0.55;66.97;101306.84;5040396;27;97435;-79
2024/01/12 00:47:26;;;;;;;24.10;13.80;;;;;;;0.79;67.38;101358.22;5039889;27;101685;-79
2024/01/12 00:49:52;;;;;;;22.83;12.63;;;;;;;0.61;67.58;101343.19;5070460;27;97801;-79
2024/01/12 00:52:17;;;;;;;18.87;11.30;;;;;;;0.78;67.63;101360.75;5059911;27;96820;-81
2024/01/12 00:54:43;;;;;;;20.80;13.53;;;;;;;0.83;66.97;101357.44;5054284;27;97290;-81
2024/01/12 00:57:08;;;;;;;26.87;14.77;;;;;;;0.89;67.24;101365.34;5069278;27;97512;-83
2024/01/12 00:59:34;;;;;;;24.37;14.23;;;;;;;0.91;67.10;101370.56;5058867;27;100644;-79
2024/01/12 01:01:59;;;;;;;24.10;12.80;;;;;;;0.70;67.54;101337.34;5055583;27;97203;-80
2024/01/12 01:04:25;;;;;;;25.27;13.73;;;;;;;0.74;67.36;101344.31;5060157;27;97009;-81
2024/01/12 01:06:54;;;;;;;25.23;12.57;;;;;;;0.71;67.45;101346.84;5060373;27;97487;-81
2024/01/12 01:09:19;;;;;;;22.37;13.17;;;;;;;0.66;68.16;101369.97;5067673;27;97369;-80
2024/01/12 01:11:45;;;;;;;20.97;11.87;;;;;;;0.83;67.50;101372.09;5050903;27;97173;-80
2024/01/12 01:14:10;;;;;;;21.23;12.30;;;;;;;0.76;67.75;101378.84;5059282;27;96919;-79
2024/01/12 01:16:36;;;;;;;22.17;12.10;;;;;;;0.66;67.35;101349.31;5052196;27;97974;-83
2024/01/12 01:19:02;;;;;;;22.73;11.50;;;;;;;0.98;67.29;101366.38;5028628;27;100857;-81
2024/01/12 01:21:27;;;;;;;18.00;11.23;;;;;;;0.89;67.67;101365.34;5055876;27;96786;-79
2024/01/12 01:23:54;;;;;;;19.43;11.27;;;;;;;0.92;67.25;101372.28;5066522;27;96829;-80
2024/01/12 01:26:19;;;;;;;19.93;11.67;;;;;;;0.91;67.23;101373.13;5076496;27;97365;-80
2024/01/12 01:28:45;;;;;;;18.73;11.63;;;;;;;0.91;67.64;101360.22;5053906;27;100540;-79
2024/01/12 01:31:10;;;;;;;25.30;12.30;;;;;;;0.85;67.15;101347.16;5051909;27;97081;-80
2024/01/12 01:33:36;;;;;;;18.77;11.63;;;;;;;0.78;66.96;101346.13;5046325;27;97332;-80
2024/01/12 01:36:01;;;;;;;23.07;11.93;;;;;;;0.90;67.71;101364.50;5042510;27;100872;-80
2024/01/12 01:38:27;;;;;;;22.97;12.00;;;;;;;0.81;67.70;101356.53;5076462;27;97959;-80
2024/01/12 01:40:53;;;;;;;20.13;11.80;;;;;;;0.87;67.81;101366.13;5059804;27;96989;-79
2024/01/12 01:43:19;;;;;;;20.80;12.17;;;;;;;0.93;67.60;101373.16;5066989;27;96840;-79
2024/01/12 01:45:44;;;;;;;26.37;12.67;;;;;;;0.87;67.55;101367.03;5058750;27;100740;-80
2024/01/12 01:48:10;;;;;;;18.53;11.03;;;;;;;0.84;67.85;101347.97;5032711;27;101640;-80
2024/01/12 01:50:36;;;;;;;19.13;12.03;;;;;;;0.85;67.42;101355.78;5045164;27;96837;-80
2024/01/12 01:53:02;;;;;;;20.77;13.40;;;;;;;0.87;68.05;101366.13;5053208;27;96877;-80
2024/01/12 01:55:29;;;;;;;19.63;12.23;;;;;;;0.85;68.04;101353.19;5036983;27;101221;-79
2024/01/12 01:57:55;;;;;;;22.47;13.33;;;;;;;0.80;67.42;101338.41;5035409;27;101336;-79
2024/01/12 02:00:21;;;;;;;19.80;12.47;;;;;;;0.93;67.79;101371.44;5067824;27;96769;-79
2024/01/12 02:02:47;;;;;;;23.37;13.50;;;;;;;0.93;68.23;101348.16;5055608;27;96895;-81
2024/01/12 02:05:14;;;;;;;23.07;12.30;;;;;;;1.01;67.70;101374.19;5070824;27;97538;-79
2024/01/12 02:07:41;;;;;;;23.63;13.63;;;;;;;0.83;67.84;101348.81;5040534;27;101193;-84
2024/01/12 02:10:07;;;;;;;22.20;12.40;;;;;;;0.96;67.95;101378.38;5063675;27;97290;-85
2024/01/12 02:12:37;;;;;;;22.70;13.37;;;;;;;0.98;67.84;101379.31;5055352;27;96851;-79
2024/01/12 02:15:08;;;;;;;23.43;12.13;;;;;;;0.93;68.09;101378.31;5063311;27;97216;-79
2024/01/12 02:17:35;;;;;;;20.70;11.98;;;;;;;1.01;67.78;101380.25;5075371;27;98100;-79
2024/01/12 02:20:01;;;;;;;24.03;13.53;;;;;;;0.93;68.26;101374.03;5033966;27;96690;-79
2024/01/12 02:22:26;;;;;;;21.93;13.40;;;;;;;0.88;68.57;101361.00;5045652;27;97044;-79
2024/01/12 02:24:53;;;;;;;22.87;13.43;;;;;;;0.88;68.15;101345.50;5075736;27;97314;-79
2024/01/12 02:27:19;;;;;;;21.17;12.80;;;;;;;0.98;68.31;101369.84;5034711;27;100926;-79
2024/01/12 02:29:45;;;;;;;25.73;12.97;;;;;;;0.97;68.21;101364.66;5039279;27;96736;-81
2024/01/12 02:32:11;;;;;;;21.93;13.13;;;;;;;1.04;67.59;101375.13;5062628;27;96835;-79
2024/01/12 02:34:36;;;;;;;24.63;13.03;;;;;;;0.87;68.03;101351.53;5055364;27;97456;-79
2024/01/12 02:37:01;;;;;;;20.87;12.83;;;;;;;0.95;68.16;101374.06;5044224;27;100013;-79
2024/01/12 02:39:27;;;;;;;27.07;13.73;;;;;;;0.95;68.77;101380.09;5065719;27;96698;-79
2024/01/12 02:41:57;;;;;;;29.30;14.87;;;;;;;0.95;68.39;101374.94;5053565;27;98212;-80
2024/01/12 02:44:25;;;;;;;24.00;13.40;;;;;;;1.07;68.35;101379.50;5067194;27;101055;-79
2024/01/12 02:46:51;;;;;;;22.47;13.70;;;;;;;1.03;68.53;101377.69;5045715;27;100905;-80
2024/01/12 02:49:16;;;;;;;22.47;13.33;;;;;;;1.05;68.53;101387.25;5058704;27;97203;-81
2024/01/12 02:51:42;;;;;;;22.73;13.73;;;;;;;1.06;68.36;101380.34;5055570;27;96916;-80
2024/01/12 02:54:07;;;;;;;27.13;14.57;;;;;;;1.05;68.28;101371.72;5039604;27;101297;-79
2024/01/12 02:56:33;;;;;;;24.43;13.10;;;;;;;1.10;68.22;101383.03;5069037;27;97493;-79
2024/01/12 02:58:58;;;;;;;24.20;14.30;;;;;;;1.08;68.80;101376.97;5026506;27;96788;-79
2024/01/12 03:01:24;;;;;;;26.90;13.00;;;;;;;1.02;68.81;101376.84;5075362;27;97223;-79
2024/01/12 03:03:49;;;;;;;24.77;13.73;;;;;;;0.95;68.54;101353.38;5044523;27;101330;-79
2024/01/12 03:06:15;;;;;;;26.03;15.40;;;;;;;0.98;68.85;101374.13;5075106;27;98855;-79
2024/01/12 03:08:40;;;;;;;23.53;13.60;;;;;;;1.03;68.97;101365.63;5058410;27;96753;-79
2024/01/12 03:11:06;;;;;;;26.40;14.90;;;;;;;1.06;69.05;101370.88;5040238;27;96805;-79
2024/01/12 03:13:33;;;;;;;29.97;14.90;;;;;;;1.06;68.82;101372.59;5038383;27;101107;-82
2024/01/12 03:15:59;;;;;;;27.63;14.57;;;;;;;1.03;68.48;101352.72;5054524;27;100866;-79
2024/01/12 03:18:25;;;;;;;31.47;15.83;;;;;;;1.20;68.83;101365.13;5068337;27;96800;-80
2024/01/12 03:20:50;;;;;;;26.37;14.87;;;;;;;1.17;68.70;101363.34;5053880;27;97481;-79
2024/01/12 03:23:16;;;;;;;26.07;14.57;;;;;;;1.17;68.96;101355.59;5075255;27;98035;-79
2024/01/12 03:25:41;;;;;;;27.20;15.77;;;;;;;1.11;68.48;101351.16;5054818;27;97465;-80
2024/01/12 03:28:08;;;;;;;24.67;14.73;;;;;;;1.02;69.31;101361.31;5037810;27;97149;-81
2024/01/12 03:30:34;;;;;;;28.27;14.90;;;;;;;1.13;68.98;101366.69;5057678;27;97154;-79
2024/01/12 03:33:00;;;;;;;26.37;15.57;;;;;;;1.09;69.13;101364.91;5057130;27;101330;-80
2024/01/12 03:35:25;;;;;;;29.80;16.13;;;;;;;1.14;68.73;101360.72;5063084;27;97733;-79
2024/01/12 03:37:51;;;;;;;27.90;14.93;;;;;;;1.25;68.55;101359.22;5054580;27;98167;-81
2024/01/12 03:40:17;;;;;;;27.33;15.97;;;;;;;1.16;69.02;101359.00;5073991;27;96818;-79
2024/01/12 03:42:42;;;;;;;29.77;16.23;;;;;;;1.09;69.36;101344.22;5051791;27;97422;-82
2024/01/12 03:45:09;;;;;;;28.80;17.00;;;;;;;1.15;69.46;101356.41;5037339;27;101002;-80
2024/01/12 03:47:34;;;;;;;30.30;16.67;;;;;;;1.21;69.22;101349.63;5048475;27;96720;-80
2024/01/12 03:50:00;;;;;;;36.83;20.43;;;;;;;1.16;69.21;101342.63;5051889;27;97354;-80
2024/01/12 03:52:25;;;;;;;37.30;18.17;;;;;;;1.12;69.70;101337.38;5059834;27;100684;-82
2024/01/12 03:54:51;;;;;;;32.97;18.20;;;;;;;1.11;68.96;101340.81;5057793;27;100978;-80
2024/01/12 03:57:16;;;;;;;36.63;17.67;;;;;;;1.17;69.64;101354.72;5052715;27;97203;-80
2024/01/12 03:59:42;;;;;;;33.13;18.00;;;;;;;1.20;69.61;101355.66;5057857;27;97628;-81
2024/01/12 04:02:07;;;;;;;32.50;17.87;;;;;;;1.31;69.40;101354.16;5030571;27;101337;-82
2024/01/12 04:04:33;;;;;;;36.57;17.80;;;;;;;1.21;69.62;101351.34;5044147;27;100450;-80
2024/01/12 04:06:58;;;;;;;32.97;17.17;;;;;;;1.24;69.61;101352.28;5032161;27;97093;-81
2024/01/12 04:09:24;;;;;;;32.53;17.23;;;;;;;1.29;69.25;101355.84;5042518;27;97189;-80
2024/01/12 04:11:49;;;;;;;34.17;17.80;;;;;;;1.25;69.66;101364.41;5070086;27;97585;-80
2024/01/12 04:14:15;;;;;;;33.37;18.20;;;;;;;1.29;69.75;101354.97;5064229;27;97397;-80
2024/01/12 04:16:40;;;;;;;35.27;19.13;;;;;;;1.23;69.26;101358.31;5061270;27;96863;-80
2024/01/12 04:19:06;;;;;;;36.97;19.63;;;;;;;1.13;69.44;101333.06;5038555;27;97174;-79
2024/01/12 04:21:31;;;;;;;40.17;18.97;;;;;;;1.36;69.51;101362.00;5057358;27;97856;-79
2024/01/12 04:23:57;;;;;;;41.53;20.60;;;;;;;1.31;69.43;101368.81;5046756;27;97550;-80
2024/01/12 04:26:22;;;;;;;40.23;20.70;;;;;;;1.27;69.88;101379.94;5046388;27;96769;-79
2024/01/12 04:28:48;;;;;;;40.83;21.40;;;;;;;1.26;69.65;101371.31;5040433;27;96961;-79
2024/01/12 04:31:13;;;;;;;41.73;20.33;;;;;;;1.34;69.71;101374.06;5059316;27;101163;-81
2024/01/12 04:33:40;;;;;;;53.47;22.30;;;;;;;1.37;69.81;101376.69;5058558;27;97961;-80
2024/01/12 04:36:06;;;;;;;40.50;20.43;;;;;;;1.19;69.87;101351.31;5053959;27;97000;-81
2024/01/12 04:38:32;;;;;;;39.63;19.77;;;;;;;1.22;69.92;101345.31;5073084;27;97511;-79
2024/01/12 04:40:57;;;;;;;43.23;21.27;;;;;;;1.12;69.93;101347.72;5069409;27;101020;-83
2024/01/12 04:43:23;;;;;;;40.23;21.43;;;;;;;1.25;70.13;101359.22;5055976;27;101436;-81
2024/01/12 04:45:48;;;;;;;43.30;22.13;;;;;;;1.27;70.09;101379.94;5065830;27;97150;-80
2024/01/12 04:48:14;;;;;;;49.03;21.57;;;;;;;1.32;70.05;101381.78;5066739;27;97022;-81
2024/01/12 04:50:39;;;;;;;43.97;22.17;;;;;;;1.41;69.50;101380.22;5063478;27;97885;-81
2024/01/12 04:53:05;;;;;;;47.37;22.27;;;;;;;1.38;69.66;101375.84;5048564;27;101116;-80
2024/01/12 04:55:30;;;;;;;51.50;23.60;;;;;;;1.47;69.58;101388.09;5058318;27;96805;-80
2024/01/12 04:57:56;;;;;;;56.77;25.30;;;;;;;1.25;69.79;101348.88;5039378;27;96845;-81
2024/01/12 05:00:21;;;;;;;47.37;22.73;;;;;;;1.39;70.23;101376.72;5071805;27;97512;-79
2024/01/12 05:02:47;;;;;;;51.90;22.83;;;;;;;1.17;70.41;101354.72;5065192;27;98100;-79
2024/01/12 05:05:12;;;;;;;49.10;22.90;;;;;;;1.41;70.34;101386.25;5057352;27;96739;-84
2024/01/12 05:07:38;;;;;;;57.33;25.83;;;;;;;1.43;70.22;101383.72;5056963;27;97106;-81
2024/01/12 05:10:04;;;;;;;53.53;23.33;;;;;;;1.44;69.93;101377.69;5038989;27;101151;-80
2024/01/12 05:12:30;;;;;;;51.47;22.87;;;;;;;1.35;70.40;101393.91;5074356;27;96781;-80
2024/01/12 05:14:55;;;;;;;53.43;23.17;;;;;;;1.35;70.18;101383.56;5076762;27;96742;-79
2024/01/12 05:17:22;;;;;;;52.70;24.10;;;;;;;1.33;70.32;101377.47;5056033;27;96898;-78
2024/01/12 05:19:48;;;;;;;46.60;22.00;;;;;;;1.42;70.42;101390.59;5053623;27;100923;-79
2024/01/12 05:22:14;;;;;;;44.20;21.23;;;;;;;1.41;70.14;101375.03;5037020;27;100788;-80
2024/01/12 05:24:39;;;;;;;47.30;23.77;;;;;;;1.32;70.41;101365.38;5055694;27;96725;-79
2024/01/12 05:27:05;;;;;;;47.50;24.50;;;;;;;1.48;70.05;101385.53;5038003;27;96869;-79
2024/01/12 05:29:30;;;;;;;46.03;22.83;;;;;;;1.45;70.07;101382.88;5057438;27;101135;-79
2024/01/12 05:31:56;;;;;;;45.67;21.90;;;;;;;1.34;70.02;101366.28;5051458;27;98074;-80
2024/01/12 05:34:21;;;;;;;49.93;21.67;;;;;;;1.45;70.40;101380.28;5049626;27;96774;-79
2024/01/12 05:36:47;;;;;;;47.07;21.90;;;;;;;1.40;70.59;101386.22;5059576;27;96867;-79
2024/01/12 05:39:14;;;;;;;50.03;22.73;;;;;;;1.44;70.19;101386.31;5056000;27;101470;-79
2024/01/12 05:41:40;;;;;;;46.87;23.53;;;;;;;1.34;70.06;101374.94;5039997;27;100910;-85
2024/01/12 05:44:05;;;;;;;49.97;23.63;;;;;;;1.44;70.24;101404.44;5051222;27;96882;-79
2024/01/12 05:46:31;;;;;;;46.83;23.93;;;;;;;1.46;70.39;101410.53;5035907;27;97009;-79
2024/01/12 05:48:57;;;;;;;52.47;25.13;;;;;;;1.50;69.86;101406.28;5058534;27;100881;-79
2024/01/12 05:51:23;;;;;;;52.40;24.53;;;;;;;1.50;70.22;101399.38;5048474;27;101625;-84
2024/01/12 05:53:48;;;;;;;48.80;24.27;;;;;;;1.49;70.14;101402.81;5043768;27;96868;-79
2024/01/12 05:56:14;;;;;;;48.20;23.77;;;;;;;1.47;70.36;101395.88;5072462;27;97107;-82
2024/01/12 05:58:39;;;;;;;52.30;23.33;;;;;;;1.52;69.98;101396.84;5049413;27;100870;-82
2024/01/12 06:01:05;;;;;;;52.97;24.53;;;;;;;1.46;70.13;101394.13;5034425;27;101242;-79
2024/01/12 06:03:30;;;;;;;52.80;23.10;;;;;;;1.56;69.97;101406.41;5038880;27;96761;-79
2024/01/12 06:05:56;;;;;;;49.93;23.40;;;;;;;1.49;70.27;101396.78;5052821;27;96842;-80
2024/01/12 06:08:22;;;;;;;53.63;24.57;;;;;;;1.50;69.82;101401.97;5058658;27;97874;-81
2024/01/12 06:10:47;;;;;;;53.30;24.33;;;;;;;1.50;70.33;101406.28;5055153;27;100959;-80
2024/01/12 06:13:13;;;;;;;50.07;23.83;;;;;;;1.34;70.55;101368.88;5036358;27;97416;-81
2024/01/12 06:15:39;;;;;;;47.53;22.47;;;;;;;1.55;70.23;101407.25;5037904;27;97728;-81
2024/01/12 06:18:05;;;;;;;50.57;24.27;;;;;;;1.56;70.14;101412.44;5048856;27;100730;-80
2024/01/12 06:20:30;;;;;;;52.47;24.10;;;;;;;1.52;70.29;101408.06;5068683;27;97864;-82
2024/01/12 06:22:56;;;;;;;51.67;24.13;;;;;;;1.49;69.98;101412.31;5054623;27;98233;-72
2024/01/12 06:25:23;;;;;;;57.07;23.57;;;;;;;1.45;69.86;101392.38;5067369;27;97837;-75
2024/01/12 06:27:49;;;;;;;48.97;22.53;;;;;;;1.71;69.56;101414.47;5062853;27;97472;-83
2024/01/12 06:30:15;;;;;;;47.77;22.63;;;;;;;1.64;69.34;101415.19;5070404;27;97573;-82
2024/01/12 06:32:40;;;;;;;46.13;22.90;;;;;;;1.55;69.62;101405.53;5047520;27;97278;-81
2024/01/12 06:35:10;;;;;;;48.83;23.67;;;;;;;1.58;69.73;101396.97;5057345;27;96891;-81
2024/01/12 06:37:36;;;;;;;44.77;21.03;;;;;;;1.56;69.31;101407.25;5049413;27;97574;-82
2024/01/12 06:40:03;;;;;;;45.87;18.27;;;;;;;1.64;69.32;101407.44;5064248;27;98359;-84
2024/01/12 06:42:28;;;;;;;33.93;17.67;;;;;;;1.72;68.91;101413.63;5055256;27;97129;-84
2024/01/12 06:44:54;;;;;;;36.67;18.93;;;;;;;1.70;68.92;101414.44;5041827;27;97348;-83
2024/01/12 06:47:20;;;;;;;37.37;18.63;;;;;;;1.68;69.04;101418.72;5067601;27;97534;-75
2024/01/12 06:49:45;;;;;;;44.83;20.17;;;;;;;1.64;69.05;101415.19;5037305;27;100574;-75
2024/01/12 06:52:11;;;;;;;37.63;17.83;;;;;;;1.63;68.89;101413.47;5052429;27;96984;-83
2024/01/12 06:54:37;;;;;;;36.23;19.47;;;;;;;1.73;69.08;101422.25;5044402;27;96914;-84
2024/01/12 06:57:03;;;;;;;43.60;21.30;;;;;;;1.71;68.70;101423.94;5031455;27;101779;-86
2024/01/12 06:59:29;;;;;;;39.07;20.67;;;;;;;1.65;69.24;101419.50;5035215;27;99495;-76
2024/01/12 07:01:54;;;;;;;47.00;21.20;;;;;;;1.64;69.32;101425.53;5059273;27;97311;-75
2024/01/12 07:04:19;;;;;;;44.50;21.23;;;;;;;1.67;69.52;101422.16;5030978;27;96984;-75
2024/01/12 07:06:45;;;;;;;40.63;20.27;;;;;;;1.71;69.61;101421.34;5053288;27;101489;-75
2024/01/12 07:09:13;;;;;;;44.33;22.37;;;;;;;1.71;69.37;101429.13;5070051;27;97207;-79
2024/01/12 07:11:42;;;;;;;48.40;22.93;;;;;;;1.69;69.47;101410.13;5056528;27;97613;-78
2024/01/12 07:14:08;;;;;;;45.00;22.67;;;;;;;1.73;68.78;101417.09;5051167;27;97064;-76
2024/01/12 07:16:34;;;;;;;42.57;20.33;;;;;;;1.75;69.12;101418.88;5069246;27;98772;-75
2024/01/12 07:18:59;;;;;;;39.07;21.00;;;;;;;1.59;68.63;101396.09;5029019;27;101228;-76
2024/01/12 07:21:25;;;;;;;50.73;24.20;;;;;;;1.70;68.66;101414.44;5052690;27;97202;-75
2024/01/12 07:23:50;;;;;;;40.83;21.33;;;;;;;1.70;69.01;101410.13;5053501;27;96798;-76
2024/01/12 07:26:16;;;;;;;42.50;20.20;;;;;;;1.79;68.80;101424.97;5055438;27;97607;-75
2024/01/12 07:28:42;;;;;;;35.20;19.53;;;;;;;1.71;68.62;101424.81;5056800;27;101065;-76
2024/01/12 07:31:07;;;;;;;33.67;18.80;;;;;;;1.68;68.72;101429.94;5050268;27;97430;-75
2024/01/12 07:33:33;;;;;;;31.63;15.93;;;;;;;1.78;68.32;101438.78;5064258;27;97229;-75
2024/01/12 07:35:58;;;;;;;31.37;14.80;;;;;;;1.58;68.20;101397.81;5069705;27;97615;-75
2024/01/12 07:38:24;;;;;;;27.00;15.07;;;;;;;1.81;67.89;101421.56;5045456;27;100989;-75
2024/01/12 07:40:49;;;;;;;27.53;14.97;;;;;;;1.76;67.83;101419.75;5061806;27;96988;-75
2024/01/12 07:43:15;;;;;;;28.63;15.67;;;;;;;1.85;67.70;101442.34;5063889;27;97477;-75
2024/01/12 07:45:41;;;;;;;27.50;13.73;;;;;;;1.86;67.53;101420.78;5058592;27;100989;-76
2024/01/12 07:48:07;;;;;;;27.67;14.23;;;;;;;1.82;67.56;101401.72;5046710;27;101033;-75
2024/01/12 07:50:33;;;;;;;37.83;18.03;;;;;;;1.63;68.16;101394.44;5060053;27;97093;-74
2024/01/12 07:52:59;;;;;;;50.10;21.83;;;;;;;1.70;69.04;101415.31;5043550;27;97504;-76
2024/01/12 07:55:27;;;;;;;50.13;21.10;;;;;;;1.69;68.85;101410.13;5045475;27;97826;-75
2024/01/12 07:57:53;;;;;;;53.37;21.70;;;;;;;1.77;68.72;101413.69;5053559;27;101386;-77
2024/01/12 08:00:18;;;;;;;48.27;21.30;;;;;;;1.83;68.90;101405.19;5063532;27;97311;-75
2024/01/12 08:02:44;;;;;;;53.00;23.23;;;;;;;1.87;68.61;101420.81;5052470;27;97099;-76
2024/01/12 08:05:10;;;;;;;51.33;22.13;;;;;;;1.74;68.98;101400.69;5065567;27;100753;-77
2024/01/12 08:07:36;;;;;;;58.13;23.90;;;;;;;1.78;69.48;101410.28;5052974;27;100970;-76
2024/01/12 08:10:02;;;;;;;52.03;21.63;;;;;;;1.85;68.90;101403.50;5065049;27;98202;-75
2024/01/12 08:12:27;;;;;;;54.83;24.90;;;;;;;1.63;69.28;101385.00;5057071;27;96861;-76
2024/01/12 08:14:52;;;;;;;52.33;21.87;;;;;;;1.76;68.83;101393.84;5031085;27;101430;-84
2024/01/12 08:17:18;;;;;;;46.73;21.57;;;;;;;1.76;69.32;101399.03;5055411;27;97947;-85
2024/01/12 08:19:43;;;;;;;41.77;20.33;;;;;;;1.88;68.88;101406.16;5062629;27;97448;-84
2024/01/12 08:22:09;;;;;;;43.43;19.27;;;;;;;1.77;68.69;101396.44;5048365;27;97732;-88
2024/01/12 08:24:34;;;;;;;43.23;18.67;;;;;;;1.73;69.04;101414.50;5047080;27;100979;-83
2024/01/12 08:27:00;;;;;;;36.90;18.73;;;;;;;1.49;69.51;101378.66;5033529;27;101669;-83
2024/01/12 08:29:25;;;;;;;36.33;18.07;;;;;;;1.68;69.18;101408.34;5063980;27;96793;-86
2024/01/12 08:31:51;;;;;;;35.33;16.70;;;;;;;1.79;68.68;101414.63;5050333;27;96894;-82
2024/01/12 08:34:18;;;;;;;28.13;15.60;;;;;;;1.61;68.68;101398.75;5073432;27;97484;-82
2024/01/12 08:36:44;;;;;;;29.80;15.73;;;;;;;1.57;69.02;101371.91;5052991;27;101339;-83
2024/01/12 08:39:09;;;;;;;37.03;16.83;;;;;;;1.59;68.82;101378.84;5065411;27;97937;-82
2024/01/12 08:41:35;;;;;;;27.83;14.73;;;;;;;1.88;68.32;101398.38;5045490;27;97042;-82
2024/01/12 08:44:00;;;;;;;28.93;15.03;;;;;;;1.77;68.26;101387.81;5053736;27;100845;-81
2024/01/12 08:46:25;;;;;;;32.37;16.70;;;;;;;1.80;68.96;101399.13;5053307;27;97974;-81
2024/01/12 08:48:52;;;;;;;33.40;16.30;;;;;;;1.71;68.93;101387.69;5051275;27;96698;-81
2024/01/12 08:51:17;;;;;;;36.50;17.37;;;;;;;1.84;68.78;101404.38;5050849;27;97316;-83
2024/01/12 08:53:43;;;;;;;35.77;15.67;;;;;;;1.78;68.71;101397.34;5053570;27;101170;-81
2024/01/12 08:56:08;;;;;;;32.20;15.93;;;;;;;1.76;68.75;101391.25;5049492;27;97900;-86
2024/01/12 08:58:34;;;;;;;26.57;14.47;;;;;;;1.78;68.83;101389.56;5036358;27;96980;-85
2024/01/12 09:01:01;;;;;;;33.30;15.03;;;;;;;1.58;68.93;101382.28;5049764;27;97616;-83
2024/01/12 09:03:26;;;;;;;32.83;16.10;;;;;;;1.69;68.97;101390.28;5064499;27;98012;-83
2024/01/12 09:05:52;;;;;;;33.13;14.93;;;;;;;1.74;70.00;101401.56;5057361;27;97685;-77
2024/01/12 09:08:17;;;;;;;31.00;15.30;;;;;;;1.66;69.89;101390.22;5052294;27;97143;-83
2024/01/12 09:10:42;;;;;;;36.37;16.17;;;;;;;1.88;69.58;101412.19;5057384;27;97624;-84
2024/01/12 09:13:08;;;;;;;33.63;16.50;;;;;;;1.79;69.19;101375.78;5055736;27;101682;-83
2024/01/12 09:15:33;;;;;;;31.97;15.20;;;;;;;1.75;68.77;101361.91;5058017;27;97312;-88
2024/01/12 09:17:59;;;;;;;29.77;14.77;;;;;;;1.61;68.86;101345.25;5038236;27;97276;-84
2024/01/12 09:20:25;;;;;;;27.70;13.83;;;;;;;1.89;68.91;101388.06;5057994;27;97185;-84
2024/01/12 09:22:50;;;;;;;25.83;13.17;;;;;;;1.72;68.57;101384.28;5069363;27;97492;-84
2024/01/12 09:25:16;;;;;;;22.13;11.07;;;;;;;1.58;68.51;101384.00;5029690;27;101478;-84
2024/01/12 09:27:41;;;;;;;25.27;13.10;;;;;;;1.44;68.85;101365.63;5059477;27;96939;-84
2024/01/12 09:30:07;;;;;;;21.63;10.87;;;;;;;1.61;68.64;101406.50;5060984;27;97299;-84
2024/01/12 09:32:33;;;;;;;20.90;10.63;;;;;;;1.75;68.48;101392.97;5054747;27;100845;-84
2024/01/12 09:34:58;;;;;;;23.37;10.50;;;;;;;1.76;68.57;101391.25;5055700;27;100963;-82
2024/01/12 09:37:24;;;;;;;19.33;11.13;;;;;;;1.94;67.60;101407.13;5053022;27;97568;-87
2024/01/12 09:39:49;;;;;;;18.00;10.03;;;;;;;1.68;67.82;101409.22;5047095;27;96765;-86
2024/01/12 09:42:17;;;;;;;20.63;10.30;;;;;;;1.79;67.79;101394.78;5053040;27;98259;-83
2024/01/12 09:44:47;;;;;;;19.73;10.43;;;;;;;1.95;67.71;101403.72;5054117;27;100739;-76
2024/01/12 09:47:12;;;;;;;22.13;10.47;;;;;;;1.83;67.55;101390.50;5059007;27;96773;-78
2024/01/12 09:49:38;;;;;;;19.07;9.17;;;;;;;1.95;67.22;101408.91;5073450;27;97069;-77
2024/01/12 09:52:07;;;;;;;18.97;10.33;;;;;;;1.80;67.62;101395.63;5054056;27;98055;-76
2024/01/12 09:54:34;;;;;;;15.97;9.03;;;;;;;1.75;67.73;101400.75;5072110;27;101075;-76
2024/01/12 09:57:01;;;;;;;17.27;9.47;;;;;;;1.83;68.13;101395.69;5055237;27;97335;-78
2024/01/12 09:59:27;;;;;;;18.17;9.07;;;;;;;1.90;67.88;101399.28;5054338;27;97259;-77
2024/01/12 10:01:52;;;;;;;14.53;8.87;;;;;;;1.82;67.60;101373.25;5068930;27;97453;-75
2024/01/12 10:04:18;;;;;;;14.27;8.63;;;;;;;1.93;67.47;101395.03;5059241;27;97484;-75
2024/01/12 10:06:44;;;;;;;15.93;8.60;;;;;;;1.84;66.94;101355.16;5075570;27;96742;-75
2024/01/12 10:09:09;;;;;;;15.37;8.27;;;;;;;2.13;67.01;101394.53;5054503;27;97042;-77
2024/01/12 10:11:35;;;;;;;15.03;8.03;;;;;;;2.00;66.88;101388.25;5055262;27;101100;-76
2024/01/12 10:14:00;;;;;;;12.97;7.63;;;;;;;2.16;66.50;101387.69;5050479;27;101392;-77
2024/01/12 10:16:29;;;;;;;15.50;8.20;;;;;;;2.17;66.50;101389.41;5034918;27;96788;-76
2024/01/12 10:18:59;;;;;;;16.87;8.90;;;;;;;2.25;66.00;101398.19;5075516;27;97042;-76
2024/01/12 10:21:25;;;;;;;16.07;7.53;;;;;;;2.28;65.67;101401.69;5060154;27;97411;-79
2024/01/12 10:24:07;;;;;;;17.13;7.47;;;;;;;2.09;65.27;101372.00;5048295;27;101206;-72
2024/01/12 10:26:33;;;;;;;15.50;8.10;;;;;;;2.25;65.57;101400.78;5043804;27;96866;-84
2024/01/12 10:29:02;;;;;;;16.47;7.97;;;;;;;2.25;65.31;101403.38;5061882;27;96944;-84
2024/01/12 10:31:28;;;;;;;14.33;7.40;;;;;;;2.22;65.52;101386.91;5055831;27;97659;-83
2024/01/12 10:33:56;;;;;;;13.30;7.70;;;;;;;2.35;65.24;101404.38;5035271;27;101346;-91
2024/01/12 10:36:22;;;;;;;16.10;8.03;;;;;;;2.19;65.52;101399.81;5051475;27;97975;-89
2024/01/12 10:51:27;;;;;;;17.27;9.23;;;;;;;2.84;63.14;101396.53;6242572;22;1362489;-73
2024/01/12 10:54:01;;;;;;;20.20;9.73;;;;;;;2.69;63.61;101390.25;6204242;22;96821;-73
2024/01/12 10:56:29;;;;;;;17.50;9.33;;;;;;;2.60;63.85;101377.16;6230410;22;97396;-73
2024/01/12 10:58:55;;;;;;;21.73;10.60;;;;;;;2.60;63.77;101378.88;6256989;22;97248;-73
2024/01/12 11:01:23;;;;;;;15.40;9.73;;;;;;;2.57;64.10;101363.28;6229075;22;96645;-73
2024/01/12 11:03:50;;;;;;;18.20;9.37;;;;;;;2.50;64.17;101370.06;6257488;22;96784;-73
2024/01/12 11:06:18;;;;;;;15.33;9.17;;;;;;;2.43;64.40;101361.34;6203458;22;101412;-73
2024/01/12 11:08:48;;;;;;;21.40;11.13;;;;;;;2.50;64.21;101354.53;6229869;22;97717;-74
2024/01/12 11:15:14;;;;;;;19.20;11.20;;;;;;;2.33;64.74;101363.75;6256512;22;96523;-73
2024/01/12 11:17:44;;;;;;;19.20;11.67;;;;;;;2.36;64.57;101348.28;6256122;22;97355;-73
2024/01/12 11:20:11;;;;;;;19.63;9.87;;;;;;;2.28;64.64;101344.69;6255955;22;97264;-73
2024/01/12 11:22:38;;;;;;;15.37;8.53;;;;;;;2.38;64.16;101342.25;6230232;22;96572;-74
2024/01/12 11:25:05;;;;;;;21.83;9.33;;;;;;;2.46;63.99;101329.41;6230048;22;96807;-73
2024/01/12 11:27:34;;;;;;;17.03;9.00;;;;;;;2.39;63.73;101317.22;6229506;22;97437;-73